Time;durP1;ratioP1;P1;durP2;ratioP2;P2;SDS_P1;SDS_P2;PMS_P1;PMS_P2;Temp;Humidity;BMP_temperature;BMP_pressure;BME280_temperature;BME280_humidity;BME280_pressure;Samples;Min_cycle;Max_cycle;Signal;HPM_P1;HPM_P2
2021/05/10 00:00:13;;;;;;;22.20;16.33;;;;;;;6.79;64.92;101284.69;1675848;83;21190;-94
2021/05/10 00:02:41;;;;;;;18.10;14.10;;;;;;;6.75;65.24;101290.42;1651152;85;21221;-94
2021/05/10 00:05:11;;;;;;;19.43;14.93;;;;;;;6.67;65.51;101283.17;1626851;85;21623;-93
2021/05/10 00:07:41;;;;;;;22.20;13.63;;;;;;;6.59;65.72;101278.58;1650705;85;21521;-93
2021/05/10 00:10:12;;;;;;;19.00;12.63;;;;;;;6.59;65.46;101281.69;1633671;85;21215;-93
2021/05/10 00:12:42;;;;;;;20.97;14.03;;;;;;;6.68;65.50;101287.48;1629753;85;21679;-94
2021/05/10 00:15:12;;;;;;;19.67;14.70;;;;;;;6.64;65.72;101287.41;1645390;85;21727;-94
2021/05/10 00:17:42;;;;;;;21.57;13.47;;;;;;;6.53;66.06;101296.82;1649035;85;21247;-95
2021/05/10 00:20:14;;;;;;;18.40;14.37;;;;;;;6.42;66.12;101289.83;1640169;85;21397;-94
2021/05/10 00:22:44;;;;;;;20.17;15.60;;;;;;;6.35;66.02;101288.73;1636269;86;21273;-92
2021/05/10 00:25:22;;;;;;;21.60;13.37;;;;;;;6.36;65.73;101286.42;1871821;75;22770;-94
2021/05/10 00:27:50;;;;;;;19.43;13.50;;;;;;;6.33;65.14;101286.69;1842857;77;21148;-94
2021/05/10 00:30:23;;;;;;;13.30;11.67;;;;;;;6.36;64.57;101282.45;1787772;79;21190;-93
2021/05/10 00:32:51;;;;;;;17.83;13.50;;;;;;;6.39;63.89;101288.31;1765240;79;21603;-94
2021/05/10 00:35:23;;;;;;;18.57;13.03;;;;;;;6.42;63.54;101287.19;1766239;76;21095;-94
2021/05/10 00:37:52;;;;;;;20.47;14.43;;;;;;;6.45;63.59;101298.01;1762158;80;21227;-95
2021/05/10 00:41:24;;;;;;;18.30;12.47;;;;;;;6.47;64.00;101285.46;1745304;79;22907;-92
2021/05/10 00:43:53;;;;;;;16.23;11.33;;;;;;;6.49;63.91;101290.96;1766139;78;21171;-94
2021/05/10 00:46:23;;;;;;;15.17;11.83;;;;;;;6.60;63.50;101285.53;1719208;80;21135;-92
2021/05/10 00:48:55;;;;;;;18.50;12.73;;;;;;;6.67;63.52;101288.94;1718607;81;21334;-91
2021/05/10 00:51:25;;;;;;;17.60;12.33;;;;;;;6.67;63.23;101296.42;1718334;81;21308;-93
2021/05/10 00:53:58;;;;;;;13.87;11.90;;;;;;;6.68;62.65;101300.73;1689235;83;21617;-94
2021/05/10 00:56:27;;;;;;;15.03;12.83;;;;;;;6.70;63.31;101298.77;1663885;85;21110;-93
2021/05/10 00:58:55;;;;;;;15.10;11.50;;;;;;;6.65;63.67;101297.05;1663164;85;21306;-90
2021/05/10 01:01:26;;;;;;;14.83;12.23;;;;;;;6.57;64.00;101296.89;1638102;85;21165;-92
2021/05/10 01:03:57;;;;;;;16.33;11.73;;;;;;;6.48;64.39;101300.36;1670993;85;21194;-92
2021/05/10 01:06:25;;;;;;;17.07;13.37;;;;;;;6.39;65.02;101303.38;1666996;85;21276;-93
2021/05/10 01:08:56;;;;;;;16.27;11.07;;;;;;;6.29;65.31;101307.33;1662161;85;21528;-93
2021/05/10 01:11:27;;;;;;;18.13;12.03;;;;;;;6.29;65.50;101311.30;1660339;85;21127;-91
2021/05/10 01:13:55;;;;;;;14.73;10.90;;;;;;;6.33;65.24;101314.02;1663242;85;21187;-93
2021/05/10 01:16:26;;;;;;;15.70;12.10;;;;;;;6.32;65.32;101311.01;1659117;86;21375;-93
2021/05/10 01:18:58;;;;;;;13.63;11.70;;;;;;;6.26;65.42;101320.83;1654337;85;21238;-93
2021/05/10 01:21:30;;;;;;;13.97;11.23;;;;;;;6.20;65.58;101310.30;1642435;87;21199;-93
2021/05/10 01:24:01;;;;;;;15.37;12.20;;;;;;;6.15;65.62;101302.41;1637233;86;21106;-92
2021/05/10 01:29:06;;;;;;;18.23;13.60;;;;;;;6.01;65.94;101307.11;1785664;77;28427;-91
2021/05/10 01:31:34;;;;;;;12.40;11.07;;;;;;;6.11;65.61;101310.28;1752250;81;21168;-92
2021/05/10 01:34:06;;;;;;;17.60;11.50;;;;;;;6.23;65.25;101303.42;1690113;82;21133;-92
2021/05/10 01:36:36;;;;;;;18.83;13.73;;;;;;;6.19;65.41;101307.78;1649332;85;21641;-92
2021/05/10 01:39:06;;;;;;;21.20;13.17;;;;;;;6.05;65.62;101311.66;1673483;84;21196;-93
2021/05/10 01:41:39;;;;;;;16.80;13.23;;;;;;;5.94;65.82;101313.88;1680258;85;21155;-93
2021/05/10 01:44:07;;;;;;;19.80;12.87;;;;;;;5.83;65.93;101318.77;1675088;84;21164;-94
2021/05/10 01:46:38;;;;;;;20.03;13.17;;;;;;;5.76;66.19;101318.13;1679896;84;21156;-93
2021/05/10 01:49:06;;;;;;;17.27;13.70;;;;;;;5.66;66.32;101320.23;1674149;85;21546;-93
2021/05/10 01:54:31;;;;;;;18.33;13.63;;;;;;;5.55;66.71;101325.61;1801233;78;22958;-93
2021/05/10 01:56:59;;;;;;;17.60;12.47;;;;;;;5.54;66.79;101328.37;1747470;80;21566;-92
2021/05/10 01:59:26;;;;;;;16.73;12.80;;;;;;;5.59;66.71;101334.95;1727743;81;21197;-93
2021/05/10 02:01:57;;;;;;;21.57;13.03;;;;;;;5.57;66.84;101334.73;1719898;81;21178;-91
2021/05/10 02:04:27;;;;;;;16.43;13.47;;;;;;;5.51;67.34;101338.75;1716774;79;21340;-93
2021/05/10 02:07:03;;;;;;;18.23;15.00;;;;;;;5.49;67.54;101335.39;1700205;82;21219;-92
2021/05/10 02:09:41;;;;;;;16.13;12.13;;;;;;;5.48;67.63;101336.34;1712071;83;21297;-92
2021/05/10 02:12:09;;;;;;;23.67;15.07;;;;;;;5.50;68.00;101340.19;1702413;82;21807;-93
2021/05/10 02:14:54;;;;;;;20.67;15.83;;;;;;;5.56;67.91;101337.05;1807744;77;22913;-94
2021/05/10 02:17:22;;;;;;;24.70;17.40;;;;;;;5.54;67.85;101342.92;1787156;79;21206;-94
2021/05/10 02:20:13;;;;;;;20.27;13.67;;;;;;;5.70;67.75;101343.79;1809191;77;22877;-93
2021/05/10 02:22:55;;;;;;;21.47;13.57;;;;;;;5.82;67.52;101338.75;1803806;77;21053;-92
2021/05/10 02:25:31;;;;;;;22.13;14.63;;;;;;;5.89;67.29;101349.66;1790297;78;21590;-93
2021/05/10 02:28:17;;;;;;;18.63;15.33;;;;;;;5.91;67.24;101341.92;1808855;77;28060;-92
2021/05/10 02:30:55;;;;;;;21.90;13.53;;;;;;;6.09;66.63;101348.79;1798525;77;21183;-93
2021/05/10 02:33:34;;;;;;;23.90;14.40;;;;;;;6.21;66.21;101346.87;1800076;75;21066;-93
2021/05/10 02:36:04;;;;;;;17.40;13.30;;;;;;;6.10;66.30;101350.94;1727313;81;21315;-93
2021/05/10 02:38:33;;;;;;;18.60;14.37;;;;;;;6.06;66.54;101348.22;1730777;81;21149;-93
2021/05/10 02:41:05;;;;;;;20.23;13.00;;;;;;;6.00;66.66;101351.73;1748168;81;21311;-93
2021/05/10 02:43:33;;;;;;;19.40;13.90;;;;;;;6.01;66.62;101346.81;1742642;81;21179;-93
2021/05/10 02:46:01;;;;;;;18.03;14.03;;;;;;;6.06;66.65;101346.89;1729648;81;21165;-93
2021/05/10 02:48:29;;;;;;;19.60;14.30;;;;;;;6.08;66.85;101352.89;1744632;81;21307;-92
2021/05/10 02:50:57;;;;;;;20.30;15.23;;;;;;;6.06;67.10;101349.05;1744482;81;21177;-93
2021/05/10 02:53:25;;;;;;;21.10;15.70;;;;;;;6.12;67.09;101348.99;1743605;81;21143;-92
2021/05/10 02:55:53;;;;;;;21.57;14.23;;;;;;;6.35;67.22;101354.44;1743226;80;21129;-93
2021/05/10 02:58:20;;;;;;;19.20;14.00;;;;;;;6.85;66.58;101352.69;1725640;81;21194;-93
2021/05/10 03:00:48;;;;;;;17.83;12.47;;;;;;;7.43;65.09;101357.95;1751992;80;21078;-92
2021/05/10 03:03:17;;;;;;;17.90;12.27;;;;;;;8.03;63.37;101359.45;1773681;79;21167;-94
2021/05/10 03:05:45;;;;;;;17.53;11.60;;;;;;;8.63;61.92;101357.67;1756111;79;21197;-93
2021/05/10 03:08:12;;;;;;;19.20;13.80;;;;;;;9.22;60.12;101360.69;1755610;79;21158;-92
2021/05/10 03:10:40;;;;;;;18.70;12.87;;;;;;;9.75;58.64;101365.03;1772996;79;21170;-93
2021/05/10 03:13:08;;;;;;;16.87;13.23;;;;;;;10.26;56.60;101359.27;1772615;79;21051;-91
2021/05/10 03:15:35;;;;;;;14.47;12.50;;;;;;;10.69;55.43;101356.08;1773155;79;21210;-92
2021/05/10 03:18:04;;;;;;;13.67;11.43;;;;;;;11.13;54.33;101358.95;1773785;79;21380;-91
2021/05/10 03:20:36;;;;;;;15.10;11.90;;;;;;;11.58;53.46;101359.41;1788690;79;21160;-91
2021/05/10 03:23:04;;;;;;;16.70;12.25;;;;;;;12.00;52.29;101361.02;1772723;79;21248;-91
2021/05/10 03:25:33;;;;;;;15.88;11.45;;;;;;;12.41;50.44;101356.32;1738297;80;21165;-90
2021/05/10 03:28:03;;;;;;;14.68;11.10;;;;;;;12.80;49.56;101354.56;1737713;80;21158;-91
2021/05/10 03:30:31;;;;;;;12.98;10.20;;;;;;;13.21;48.33;101367.63;1717652;81;21215;-91
2021/05/10 03:32:58;;;;;;;14.68;12.50;;;;;;;13.56;47.35;101371.53;1744644;81;21784;-90
2021/05/10 03:35:25;;;;;;;14.93;13.32;;;;;;;13.90;45.69;101364.80;1771537;79;21028;-90
2021/05/10 03:37:52;;;;;;;15.80;13.28;;;;;;;14.13;45.72;101369.23;1746322;80;21151;-90
2021/05/10 03:40:20;;;;;;;15.65;12.15;;;;;;;14.49;45.51;101372.45;1761553;80;21342;-91
2021/05/10 03:42:47;;;;;;;15.20;12.53;;;;;;;14.90;44.11;101376.73;1750502;80;21707;-91
2021/05/10 03:45:16;;;;;;;13.58;12.28;;;;;;;15.20;43.18;101371.23;1739192;79;21283;-91
2021/05/10 03:47:44;;;;;;;13.38;11.63;;;;;;;15.56;42.54;101378.33;1728099;81;21475;-92
2021/05/10 03:50:15;;;;;;;13.83;12.03;;;;;;;15.94;41.58;101382.83;1732539;81;21743;-91
2021/05/10 03:52:44;;;;;;;20.43;13.28;;;;;;;16.27;40.22;101382.67;1728206;81;21329;-91
2021/05/10 03:55:15;;;;;;;13.55;10.98;;;;;;;16.53;39.70;101382.77;1727294;81;21131;-90
2021/05/10 03:57:43;;;;;;;14.45;12.00;;;;;;;16.74;39.52;101380.97;1747084;81;21248;-90
2021/05/10 04:00:13;;;;;;;11.85;10.55;;;;;;;17.28;38.93;101384.06;1714373;81;21784;-90
2021/05/10 04:02:43;;;;;;;13.30;12.00;;;;;;;17.28;38.93;101384.06;1735544;81;21166;-92
2021/05/10 04:15:51;;;;;;;15.93;11.25;;;;;;;18.29;36.34;101386.09;1686945;83;21194;-91
2021/05/10 04:18:20;;;;;;;13.68;11.55;;;;;;;18.48;36.44;101392.44;1683739;83;21233;-91
2021/05/10 04:20:49;;;;;;;11.88;10.68;;;;;;;18.74;35.83;101391.48;1699492;83;21187;-92
2021/05/10 04:23:19;;;;;;;13.68;11.73;;;;;;;19.02;35.42;101396.52;1712148;83;21082;-90
2021/05/10 04:25:48;;;;;;;13.22;12.03;;;;;;;19.31;34.88;101395.56;1702262;83;21187;-86
2021/05/10 04:28:15;;;;;;;15.53;11.12;;;;;;;19.54;34.02;101392.77;1697287;83;21333;-90
2021/05/10 04:30:45;;;;;;;11.70;10.50;;;;;;;19.74;33.93;101393.44;1693321;83;21199;-91
2021/05/10 04:33:12;;;;;;;14.35;9.93;;;;;;;19.95;33.32;101400.30;1696833;83;21223;-89
2021/05/10 04:35:40;;;;;;;10.60;9.63;;;;;;;20.16;32.41;101398.19;1708705;82;21131;-89
2021/05/10 04:38:11;;;;;;;11.90;9.68;;;;;;;20.23;31.59;101394.88;1710993;82;21156;-89
2021/05/10 04:40:40;;;;;;;13.25;9.98;;;;;;;20.28;31.35;101401.78;1718872;82;21139;-91
2021/05/10 04:43:07;;;;;;;11.48;9.50;;;;;;;20.41;31.09;101408.38;1700950;82;21184;-88
2021/05/10 04:45:34;;;;;;;12.35;9.98;;;;;;;20.50;31.22;101406.19;1706530;79;21561;-88
2021/05/10 04:48:06;;;;;;;10.10;9.20;;;;;;;20.56;30.94;101410.69;1702913;83;21633;-89
2021/05/10 04:50:33;;;;;;;10.25;9.23;;;;;;;20.60;31.17;101409.20;1718153;82;21753;-88
2021/05/10 04:53:02;;;;;;;13.35;9.98;;;;;;;20.75;30.98;101408.80;1705343;82;21585;-88
2021/05/10 04:55:30;;;;;;;9.58;8.63;;;;;;;20.90;30.51;101405.66;1697847;81;21096;-87
2021/05/10 04:57:57;;;;;;;9.90;8.90;;;;;;;20.89;30.39;101405.38;1727239;81;21570;-87
2021/05/10 05:00:24;;;;;;;9.33;8.35;;;;;;;20.89;29.96;101412.16;1723461;81;21097;-86
2021/05/10 05:02:51;;;;;;;10.58;7.62;;;;;;;20.85;30.12;101420.96;1738175;81;21607;-87
2021/05/10 05:05:18;;;;;;;8.95;7.15;;;;;;;20.71;29.45;101418.98;1719626;82;21211;-86
2021/05/10 05:07:45;;;;;;;8.40;7.53;;;;;;;20.66;29.43;101418.30;1722060;81;21341;-85
2021/05/10 05:10:16;;;;;;;8.25;7.50;;;;;;;20.69;29.73;101417.84;1685490;83;21653;-87
2021/05/10 05:12:51;;;;;;;8.70;7.67;;;;;;;20.69;29.82;101415.67;1657992;83;21078;-86
2021/05/10 05:15:22;;;;;;;8.78;6.22;;;;;;;20.70;29.86;101414.09;1645884;85;21215;-86
2021/05/10 05:17:49;;;;;;;7.45;6.75;;;;;;;20.73;28.85;101410.91;1630540;86;21226;-87
2021/05/10 05:20:18;;;;;;;8.25;6.72;;;;;;;20.66;29.46;101411.52;1612032;86;21168;-85
2021/05/10 05:22:46;;;;;;;7.97;7.20;;;;;;;20.55;29.59;101424.45;1658989;85;21106;-86
2021/05/10 05:25:15;;;;;;;9.05;6.62;;;;;;;20.65;29.31;101424.78;1705509;83;21355;-87
2021/05/10 05:27:42;;;;;;;6.78;5.78;;;;;;;20.81;28.65;101427.37;1698525;83;21337;-87
2021/05/10 05:30:13;;;;;;;5.33;4.87;;;;;;;20.90;28.40;101421.92;1703548;83;21240;-85
2021/05/10 05:32:40;;;;;;;9.23;6.17;;;;;;;20.81;27.93;101430.08;1709531;83;21262;-85
2021/05/10 05:35:09;;;;;;;6.30;5.25;;;;;;;20.61;28.17;101424.95;1698211;81;21249;-85
2021/05/10 05:37:36;;;;;;;8.00;6.28;;;;;;;20.48;28.01;101425.09;1712088;83;21179;-86
2021/05/10 05:40:05;;;;;;;11.83;9.58;;;;;;;20.30;29.35;101434.86;1709219;83;21186;-87
2021/05/10 05:42:32;;;;;;;9.58;5.42;;;;;;;20.38;28.78;101430.52;1688279;83;21200;-86
2021/05/10 05:45:02;;;;;;;6.45;5.95;;;;;;;20.46;27.95;101435.33;1670255;83;21312;-86
2021/05/10 05:47:29;;;;;;;5.17;4.72;;;;;;;20.47;29.20;101431.02;1687958;83;21216;-88
2021/05/10 05:49:57;;;;;;;6.03;5.42;;;;;;;20.45;28.09;101428.24;1667273;82;21226;-86
2021/05/10 05:52:24;;;;;;;4.85;3.87;;;;;;;20.48;28.35;101423.73;1657708;85;21228;-87
2021/05/10 05:54:53;;;;;;;5.47;4.28;;;;;;;20.39;27.46;101423.21;1659671;85;21299;-86
2021/05/10 05:57:20;;;;;;;4.83;3.72;;;;;;;20.33;28.22;101422.23;1652346;84;21785;-86
2021/05/10 05:59:50;;;;;;;5.30;3.75;;;;;;;20.51;28.35;101424.62;1641760;86;21619;-87
2021/05/10 06:02:18;;;;;;;5.58;5.12;;;;;;;20.71;27.26;101423.86;1685666;83;21097;-85
2021/05/10 06:04:45;;;;;;;6.35;5.78;;;;;;;20.88;27.00;101417.80;1666679;84;21165;-85
2021/05/10 06:07:12;;;;;;;6.05;5.55;;;;;;;20.96;26.57;101414.75;1707278;82;21189;-87
2021/05/10 06:09:39;;;;;;;6.25;5.58;;;;;;;20.86;25.93;101418.56;1686501;83;21231;-88
2021/05/10 06:12:07;;;;;;;4.67;4.03;;;;;;;20.68;26.67;101420.78;1683190;83;21097;-85
2021/05/10 06:14:39;;;;;;;2.75;2.25;;;;;;;20.62;25.76;101423.87;1656505;84;21228;-88
2021/05/10 06:17:09;;;;;;;2.92;2.72;;;;;;;20.60;25.71;101423.28;1647081;85;21374;-88
2021/05/10 06:22:26;;;;;;;4.53;2.47;;;;;;;20.84;25.39;101412.55;1809639;79;23073;-86
2021/05/10 06:24:55;;;;;;;0.65;0.65;;;;;;;20.92;25.23;101419.81;1746124;81;21360;-85
2021/05/10 06:27:22;;;;;;;3.83;1.35;;;;;;;20.80;24.72;101422.48;1745678;81;21305;-86
2021/05/10 06:29:57;;;;;;;5.00;1.10;;;;;;;20.49;23.89;101422.12;1733431;81;21167;-85
2021/05/10 06:32:24;;;;;;;1.12;0.75;;;;;;;20.07;24.31;101430.67;1717109;81;21202;-87
2021/05/10 06:34:52;;;;;;;1.80;1.30;;;;;;;19.98;24.33;101430.13;1731304;82;21088;-89
2021/05/10 06:37:20;;;;;;;5.25;1.10;;;;;;;19.96;25.15;101430.88;1741371;81;21143;-87
2021/05/10 06:39:49;;;;;;;2.47;1.52;;;;;;;19.91;25.01;101430.20;1721253;81;21163;-87
2021/05/10 06:42:18;;;;;;;1.42;1.32;;;;;;;19.93;25.48;101432.66;1727679;81;21633;-87
2021/05/10 06:44:47;;;;;;;2.27;0.80;;;;;;;20.14;25.67;101434.14;1727527;81;21180;-86
2021/05/10 06:47:14;;;;;;;3.27;0.70;;;;;;;20.27;24.21;101433.98;1726584;82;21156;-88
2021/05/10 06:49:42;;;;;;;1.82;1.07;;;;;;;20.21;24.14;101444.34;1735997;81;21187;-88
2021/05/10 06:52:10;;;;;;;2.20;0.95;;;;;;;20.18;24.91;101441.56;1727595;82;21201;-89
2021/05/10 06:54:38;;;;;;;1.45;1.17;;;;;;;20.36;24.53;101435.33;1704929;82;21652;-88
2021/05/10 06:57:09;;;;;;;1.05;1.05;;;;;;;20.54;24.56;101435.83;1692793;84;21635;-86
2021/05/10 06:59:37;;;;;;;2.80;1.00;;;;;;;20.45;23.94;101435.02;1681108;84;21211;-87
2021/05/10 07:02:09;;;;;;;2.35;1.25;;;;;;;20.34;24.04;101432.53;1698953;84;21261;-88
2021/05/10 07:04:36;;;;;;;0.95;0.85;;;;;;;20.20;24.02;101433.22;1688684;84;21286;-87
2021/05/10 07:07:05;;;;;;;2.37;0.95;;;;;;;20.33;24.97;101433.06;1688002;84;21227;-87
2021/05/10 07:09:32;;;;;;;1.55;0.93;;;;;;;20.58;23.46;101434.30;1702235;82;21211;-86
2021/05/10 07:11:59;;;;;;;1.72;0.57;;;;;;;20.71;23.95;101431.17;1723860;82;21158;-86
2021/05/10 07:14:30;;;;;;;1.20;0.45;;;;;;;20.79;22.88;101428.12;1704695;82;21220;-88
2021/05/10 07:16:58;;;;;;;0.90;0.82;;;;;;;20.79;22.53;101424.06;1704587;82;21283;-88
2021/05/10 07:19:26;;;;;;;0.93;0.93;;;;;;;20.83;22.94;101425.78;1710265;82;21782;-88
2021/05/10 07:21:54;;;;;;;2.00;0.60;;;;;;;20.77;23.47;101424.28;1701814;82;21356;-90
2021/05/10 07:24:22;;;;;;;1.20;0.50;;;;;;;20.51;22.93;101420.55;1681063;83;21686;-88
2021/05/10 07:26:49;;;;;;;0.78;0.40;;;;;;;20.03;23.71;101419.46;1686531;83;21338;-88
2021/05/10 07:29:16;;;;;;;0.40;0.40;;;;;;;19.52;24.07;101409.75;1681476;83;21709;-88
2021/05/10 07:31:43;;;;;;;0.85;0.50;;;;;;;19.15;24.18;101409.08;1693737;83;21215;-88
2021/05/10 07:34:11;;;;;;;1.30;0.50;;;;;;;17.92;24.73;101278.43;1676048;83;21092;-89
2021/05/10 07:36:42;;;;;;;0.40;0.40;;;;;;;18.39;25.32;101413.97;1675250;84;21186;-87
2021/05/10 07:39:09;;;;;;;1.47;0.70;;;;;;;18.16;25.68;101410.40;1676668;83;21169;-87
2021/05/10 07:41:37;;;;;;;0.90;0.45;;;;;;;18.01;25.84;101410.15;1679056;83;21810;-87
2021/05/10 07:44:05;;;;;;;3.80;0.75;;;;;;;17.87;25.88;101402.59;1681298;83;21185;-88
2021/05/10 07:46:32;;;;;;;1.80;1.05;;;;;;;17.75;26.46;101400.21;1689396;83;21173;-89
2021/05/10 07:48:59;;;;;;;2.58;1.10;;;;;;;17.63;26.52;101401.38;1669513;83;21207;-88
2021/05/10 07:51:26;;;;;;;2.25;0.75;;;;;;;17.59;27.26;101399.29;1674336;83;21160;-88
2021/05/10 07:53:53;;;;;;;0.50;0.35;;;;;;;17.56;26.72;101392.98;1688644;84;21311;-89
2021/05/10 07:56:23;;;;;;;0.82;0.60;;;;;;;17.56;27.22;101388.42;1689559;83;21070;-89
2021/05/10 07:58:53;;;;;;;1.75;0.57;;;;;;;17.53;26.93;101382.61;1688058;83;21185;-92
2021/05/10 08:01:22;;;;;;;0.42;0.30;;;;;;;17.43;27.13;101380.34;1698111;83;21086;-90
2021/05/10 08:03:51;;;;;;;1.07;0.88;;;;;;;17.43;27.13;101380.34;1698302;83;21303;-89
2021/05/10 08:06:23;;;;;;;0.85;0.55;;;;;;;17.39;27.03;101381.80;1698144;83;21340;-88
2021/05/10 08:08:54;;;;;;;1.85;0.82;;;;;;;17.36;27.57;101383.55;1687021;83;21189;-90
2021/05/10 08:11:21;;;;;;;2.33;2.15;;;;;;;17.38;27.26;101385.52;1679605;83;21211;-90
2021/05/10 08:13:49;;;;;;;0.88;0.72;;;;;;;17.30;27.71;101379.83;1694360;84;21152;-89
2021/05/10 08:16:16;;;;;;;3.20;0.40;;;;;;;17.36;27.26;101380.86;1691632;84;21181;-87
2021/05/10 08:18:43;;;;;;;3.08;1.12;;;;;;;17.36;27.26;101380.86;1691346;83;21172;-90
2021/05/10 08:21:11;;;;;;;1.75;0.72;;;;;;;17.41;27.36;101381.08;1702412;83;21244;-90
2021/05/10 08:23:38;;;;;;;1.85;0.70;;;;;;;17.47;26.99;101381.58;1706803;83;21098;-89
2021/05/10 08:26:06;;;;;;;1.42;0.82;;;;;;;17.44;27.10;101382.84;1709242;83;21189;-90
2021/05/10 08:28:36;;;;;;;1.50;0.30;;;;;;;17.40;27.23;101374.83;1686469;84;21210;-91
2021/05/10 08:31:04;;;;;;;1.77;1.10;;;;;;;17.46;27.30;101380.76;1693120;84;21355;-91
2021/05/10 08:33:31;;;;;;;2.80;1.00;;;;;;;17.47;26.98;101366.75;1679909;84;21103;-87
2021/05/10 08:35:59;;;;;;;1.55;1.00;;;;;;;17.42;27.38;101361.16;1668810;85;21237;-89
2021/05/10 08:38:26;;;;;;;0.95;0.47;;;;;;;17.49;28.54;101349.33;1651904;85;21246;-88
2021/05/10 08:40:53;;;;;;;0.93;0.50;;;;;;;17.49;28.54;101349.33;1683192;84;21364;-88
2021/05/10 08:43:24;;;;;;;1.75;0.55;;;;;;;17.56;28.54;101348.52;1664816;85;21214;-89
2021/05/10 08:45:57;;;;;;;1.67;0.40;;;;;;;17.55;27.81;101345.49;1662373;85;21111;-87
2021/05/10 08:48:25;;;;;;;0.60;0.55;;;;;;;17.51;27.39;101334.30;1654642;85;21857;-88
2021/05/10 08:50:55;;;;;;;2.35;2.15;;;;;;;17.51;27.39;101334.30;1665048;85;21671;-87
2021/05/10 08:53:38;;;;;;;1.67;1.00;;;;;;;17.55;28.46;101339.57;1674394;84;21174;-89
2021/05/10 08:56:07;;;;;;;1.00;0.20;;;;;;;17.61;28.15;101338.75;1669550;84;21114;-91
2021/05/10 08:58:47;;;;;;;1.02;0.40;;;;;;;17.68;27.60;101344.94;1670227;86;21230;-87
2021/05/10 09:01:15;;;;;;;0.93;0.40;;;;;;;17.70;27.73;101336.64;1643874;84;21585;-89
2021/05/10 09:03:46;;;;;;;2.25;0.53;;;;;;;17.51;28.05;101335.12;1687839;84;21198;-88
2021/05/10 09:06:18;;;;;;;2.40;0.33;;;;;;;17.51;28.05;101335.12;1668112;85;21305;-88
2021/05/10 09:08:49;;;;;;;0.42;0.42;;;;;;;17.54;28.29;101335.23;1673662;84;21328;-87
2021/05/10 09:11:19;;;;;;;3.08;0.60;;;;;;;17.59;28.31;101331.37;1683359;84;21211;-90
2021/05/10 09:13:58;;;;;;;0.50;0.50;;;;;;;17.57;27.63;101325.36;1630081;86;21704;-87
2021/05/10 09:16:26;;;;;;;0.50;0.50;;;;;;;17.54;27.65;101325.80;1670658;84;21232;-89
2021/05/10 09:18:57;;;;;;;1.17;0.70;;;;;;;17.59;28.12;101317.06;1682915;84;21334;-89
2021/05/10 09:21:29;;;;;;;2.50;0.47;;;;;;;17.59;28.12;101317.06;1639118;86;21259;-86
2021/05/10 09:24:00;;;;;;;2.25;0.40;;;;;;;17.65;27.63;101317.06;1671090;84;21116;-88
2021/05/10 09:26:33;;;;;;;0.40;0.40;;;;;;;17.70;27.39;101319.94;1644165;86;21346;-88
2021/05/10 09:29:01;;;;;;;1.05;0.33;;;;;;;17.69;25.91;101306.16;1672311;84;21345;-90
2021/05/10 09:31:29;;;;;;;0.20;0.20;;;;;;;17.68;26.17;101308.53;1664047;85;21743;-89
2021/05/10 09:33:58;;;;;;;0.85;0.40;;;;;;;17.63;26.38;101304.81;1677185;84;21537;-90
2021/05/10 09:36:37;;;;;;;0.55;0.40;;;;;;;17.66;26.17;101311.97;1631459;85;21378;-90
2021/05/10 09:39:26;;;;;;;1.70;0.40;;;;;;;17.70;25.63;101316.42;1653640;84;21218;-90
2021/05/10 09:42:02;;;;;;;0.57;0.47;;;;;;;17.14;25.79;101227.53;1663920;84;21332;-88
2021/05/10 09:44:43;;;;;;;0.50;0.42;;;;;;;17.65;25.29;101306.28;1645834;86;21133;-89
2021/05/10 09:47:12;;;;;;;1.10;0.50;;;;;;;17.62;26.01;101312.09;1645083;86;21665;-86
2021/05/10 09:49:50;;;;;;;1.47;0.50;;;;;;;17.61;26.06;101298.31;1658326;86;21650;-88
2021/05/10 09:52:22;;;;;;;1.80;0.60;;;;;;;17.60;24.23;101300.69;1640396;86;22177;-88
2021/05/10 09:55:01;;;;;;;2.08;0.85;;;;;;;17.56;25.11;101299.45;1652686;87;21329;-91
2021/05/10 09:57:30;;;;;;;0.65;0.50;;;;;;;17.50;25.87;101292.23;1671791;84;21344;-91
2021/05/10 10:00:20;;;;;;;0.50;0.50;;;;;;;17.45;26.93;101290.67;1670965;84;21345;-90
2021/05/10 10:02:48;;;;;;;2.45;0.40;;;;;;;17.46;26.13;101277.48;1631425;85;21217;-89
2021/05/10 10:05:18;;;;;;;1.90;0.82;;;;;;;17.48;25.28;101274.91;1646309;86;21212;-92
2021/05/10 10:07:46;;;;;;;1.85;0.70;;;;;;;17.50;26.31;101263.40;1652985;85;21204;-91
2021/05/10 10:10:13;;;;;;;3.90;0.82;;;;;;;17.59;26.41;101264.50;1652520;85;21800;-91
2021/05/10 10:12:41;;;;;;;1.15;0.37;;;;;;;17.59;26.41;101264.50;1651972;85;21274;-91
2021/05/10 10:15:10;;;;;;;3.87;0.68;;;;;;;17.71;26.64;101260.13;1644494;86;21365;-91
2021/05/10 10:17:37;;;;;;;2.20;0.60;;;;;;;17.82;26.34;101255.91;1634793;86;21187;-92
2021/05/10 10:20:08;;;;;;;1.70;0.42;;;;;;;17.96;26.25;101261.59;1640626;86;21693;-91
2021/05/10 10:22:35;;;;;;;1.32;0.85;;;;;;;18.02;26.17;101260.72;1661826;84;21106;-90
2021/05/10 10:25:05;;;;;;;1.27;0.90;;;;;;;18.01;25.60;101254.22;1698773;83;21209;-91
2021/05/10 10:27:37;;;;;;;1.35;0.40;;;;;;;17.90;25.26;101253.02;1700619;83;21160;-91
2021/05/10 10:30:06;;;;;;;1.05;0.70;;;;;;;17.79;25.29;101248.27;1706027;83;21187;-91
2021/05/10 10:32:34;;;;;;;0.75;0.70;;;;;;;17.76;25.60;101247.33;1678820;85;21203;-91
2021/05/10 10:35:04;;;;;;;2.33;1.22;;;;;;;17.85;25.20;101243.38;1687728;83;21299;-91
2021/05/10 10:37:33;;;;;;;4.22;1.27;;;;;;;17.85;25.20;101243.38;1683488;83;21186;-91
2021/05/10 10:40:03;;;;;;;1.02;0.50;;;;;;;17.90;23.78;101232.79;1705043;83;21213;-92
2021/05/10 10:42:31;;;;;;;2.45;0.35;;;;;;;17.94;24.02;101232.66;1665351;84;21709;-93
2021/05/10 10:45:04;;;;;;;2.20;1.65;;;;;;;17.99;24.22;101227.45;1636404;86;21146;-90
2021/05/10 10:47:59;;;;;;;1.10;0.68;;;;;;;17.99;24.22;101227.45;1672627;84;21221;-93
2021/05/10 10:50:29;;;;;;;1.10;1.00;;;;;;;18.05;24.35;101227.93;1619985;86;21357;-92
2021/05/10 10:53:02;;;;;;;1.50;0.93;;;;;;;18.11;24.16;101218.67;1671806;85;21157;-92
2021/05/10 10:55:37;;;;;;;0.95;0.60;;;;;;;18.12;24.72;101216.27;1646512;82;21077;-90
2021/05/10 10:58:20;;;;;;;0.68;0.53;;;;;;;18.27;24.66;101216.28;1672926;84;21257;-92
2021/05/10 11:01:12;;;;;;;3.63;0.40;;;;;;;18.27;24.66;101216.28;1680696;83;21100;-92
2021/05/10 11:03:40;;;;;;;2.15;0.95;;;;;;;18.25;24.73;101209.44;1690797;84;21871;-91
2021/05/10 11:06:08;;;;;;;1.02;0.55;;;;;;;18.24;25.30;101209.14;1704046;83;21367;-92
2021/05/10 11:08:50;;;;;;;1.45;0.60;;;;;;;18.27;25.46;101201.95;1704996;84;21162;-91
2021/05/10 11:11:36;;;;;;;15.05;5.50;;;;;;;18.27;25.75;101190.65;1703564;83;21634;-92
2021/05/10 11:14:04;;;;;;;6.87;2.10;;;;;;;18.27;25.75;101190.65;1705132;84;21648;-90
2021/05/10 11:16:53;;;;;;;1.77;0.68;;;;;;;18.32;26.06;101183.77;1658218;83;21902;-91
2021/05/10 11:19:35;;;;;;;1.82;0.70;;;;;;;18.34;25.96;101182.48;1677356;84;21170;-91
2021/05/10 11:22:32;;;;;;;3.70;0.68;;;;;;;18.41;26.08;101177.88;1749494;79;23156;-92
2021/05/10 11:25:39;;;;;;;1.00;0.50;;;;;;;18.41;26.32;101183.27;1638469;85;21223;-91
2021/05/10 11:28:30;;;;;;;3.02;1.00;;;;;;;18.38;25.90;101183.70;1629204;86;21382;-92
2021/05/10 11:31:02;;;;;;;0.98;0.60;;;;;;;18.26;25.52;101178.72;1663816;85;21178;-92
2021/05/10 11:33:57;;;;;;;1.72;0.50;;;;;;;18.20;25.88;101178.25;1663508;85;21243;-92
2021/05/10 11:36:35;;;;;;;0.40;0.37;;;;;;;18.21;25.07;101166.40;1649011;85;21326;-93
2021/05/10 11:39:12;;;;;;;3.95;0.57;;;;;;;18.17;25.89;101171.93;1659053;85;21342;-91
2021/05/10 11:41:45;;;;;;;0.75;0.50;;;;;;;18.11;25.21;101165.53;1629630;86;21705;-92
2021/05/10 11:44:26;;;;;;;1.70;0.57;;;;;;;18.06;25.56;101166.70;1617550;87;21214;-94
2021/05/10 11:46:58;;;;;;;1.15;0.33;;;;;;;18.07;24.66;101163.80;1593134;88;21191;-93
2021/05/10 11:49:31;;;;;;;0.62;0.60;;;;;;;18.13;24.88;101154.53;1594854;88;21851;-91
2021/05/10 11:52:11;;;;;;;0.50;0.50;;;;;;;18.19;24.25;101149.60;1632035;86;21180;-92
2021/05/10 11:54:52;;;;;;;1.32;0.70;;;;;;;18.23;25.39;101149.46;1627559;86;21235;-93
2021/05/10 11:57:30;;;;;;;0.98;0.60;;;;;;;18.23;25.41;101148.96;1616692;87;21189;-92